createdAt,value
2022-12-03T00:00:12.864Z,8.13
2022-12-03T00:02:41.609Z,8.65
2022-12-03T00:05:10.104Z,9.75
2022-12-03T00:07:37.785Z,12.55
2022-12-03T00:10:06.313Z,11.98
2022-12-03T00:12:34.019Z,5.45
2022-12-03T00:15:01.568Z,11.43
2022-12-03T00:17:29.317Z,9.15
2022-12-03T00:19:57.349Z,9.48
2022-12-03T00:22:25.103Z,8.82
2022-12-03T00:24:53.289Z,9.00
2022-12-03T00:27:21.355Z,8.88
2022-12-03T00:29:49.099Z,8.88
2022-12-03T00:32:16.837Z,8.20
2022-12-03T00:34:44.375Z,8.32
2022-12-03T00:37:11.830Z,8.98
2022-12-03T00:39:39.381Z,8.55
2022-12-03T00:42:06.863Z,8.85
2022-12-03T00:44:34.577Z,7.20
2022-12-03T00:47:02.424Z,7.57
2022-12-03T00:49:29.956Z,7.95
2022-12-03T00:51:57.438Z,7.55
2022-12-03T00:54:31.436Z,7.38
2022-12-03T00:56:59.547Z,7.70
2022-12-03T00:59:27.084Z,8.38
2022-12-03T01:01:54.606Z,8.30
2022-12-03T01:04:22.355Z,8.15
2022-12-03T01:06:49.847Z,7.55
2022-12-03T01:09:17.314Z,8.27
2022-12-03T01:11:44.805Z,8.00
2022-12-03T01:14:16.085Z,8.05
2022-12-03T01:16:43.787Z,7.70
2022-12-03T01:19:18.250Z,7.47
2022-12-03T01:21:49.682Z,7.50
2022-12-03T01:24:18.728Z,8.10
2022-12-03T01:29:14.444Z,7.78
2022-12-03T01:32:00.863Z,8.50
2022-12-03T01:34:28.809Z,7.68
2022-12-03T01:36:56.688Z,6.68
2022-12-03T01:39:24.584Z,8.35
2022-12-03T01:41:53.135Z,6.60
2022-12-03T01:44:27.590Z,7.95
2022-12-03T01:46:57.727Z,7.75
2022-12-03T01:49:29.272Z,7.93
2022-12-03T01:51:58.010Z,7.57
2022-12-03T01:54:31.075Z,7.70
2022-12-03T01:56:58.987Z,7.65
2022-12-03T01:59:37.830Z,8.38
2022-12-03T02:02:21.073Z,7.55
2022-12-03T02:04:49.129Z,7.93
2022-12-03T02:07:27.631Z,6.20
2022-12-03T02:09:57.840Z,9.27
2022-12-03T02:12:30.554Z,7.60
2022-12-03T02:14:59.324Z,8.27
2022-12-03T02:17:28.246Z,7.50
2022-12-03T02:19:57.161Z,7.97
2022-12-03T02:22:38.107Z,7.78
2022-12-03T02:25:08.961Z,8.35
2022-12-03T02:27:36.782Z,7.47
2022-12-03T02:30:06.702Z,7.13
2022-12-03T02:32:34.511Z,7.38
2022-12-03T02:35:02.009Z,7.78
2022-12-03T02:37:34.423Z,7.38
2022-12-03T02:40:10.162Z,7.45
2022-12-03T02:42:37.897Z,7.75
2022-12-03T02:45:08.720Z,6.47
2022-12-03T02:47:42.740Z,7.60
2022-12-03T02:50:12.590Z,7.32
2022-12-03T02:52:42.305Z,7.10
2022-12-03T02:55:11.198Z,8.27
2022-12-03T03:00:08.471Z,7.63
2022-12-03T03:02:37.407Z,8.18
2022-12-03T03:07:34.507Z,8.15
2022-12-03T03:10:04.129Z,6.97
2022-12-03T03:12:37.620Z,8.00
2022-12-03T03:15:08.207Z,8.27
2022-12-03T03:17:36.012Z,7.82
2022-12-03T03:20:06.407Z,7.20
2022-12-03T03:22:36.356Z,7.90
2022-12-03T03:25:04.997Z,7.85
2022-12-03T03:30:00.715Z,7.72
2022-12-03T03:32:29.051Z,7.80
2022-12-03T03:34:57.263Z,7.35
2022-12-03T03:37:25.759Z,8.18
2022-12-03T03:39:54.143Z,8.07
2022-12-03T03:42:22.041Z,8.50
2022-12-03T03:44:49.949Z,5.93
2022-12-03T03:47:18.171Z,6.68
2022-12-03T03:49:47.988Z,7.90
2022-12-03T03:52:15.456Z,7.22
2022-12-03T03:54:43.019Z,7.72
2022-12-03T03:57:10.486Z,7.85
2022-12-03T03:59:38.261Z,7.90
2022-12-03T04:02:05.682Z,7.60
2022-12-03T04:04:36.770Z,7.72
2022-12-03T04:07:04.262Z,8.48
2022-12-03T04:09:31.688Z,8.25
2022-12-03T04:12:17.606Z,7.65
2022-12-03T04:14:45.155Z,8.30
2022-12-03T04:17:12.628Z,7.78
2022-12-03T04:19:40.147Z,7.95
2022-12-03T04:22:26.161Z,8.18
2022-12-03T04:25:13.612Z,8.07
2022-12-03T04:28:13.789Z,8.43
2022-12-03T04:30:41.483Z,7.45
2022-12-03T04:33:27.761Z,7.20
2022-12-03T04:35:55.505Z,10.07
2022-12-03T04:38:23.077Z,8.48
2022-12-03T04:41:03.980Z,8.25
2022-12-03T04:43:55.552Z,8.20
2022-12-03T04:46:22.999Z,8.65
2022-12-03T04:48:50.521Z,8.00
2022-12-03T04:51:17.909Z,8.15
2022-12-03T04:53:46.278Z,7.60
2022-12-03T04:56:14.161Z,7.97
2022-12-03T04:58:41.750Z,8.32
2022-12-03T05:01:09.543Z,7.93
2022-12-03T05:03:37.235Z,8.57
2022-12-03T05:06:04.769Z,8.77
2022-12-03T05:08:32.372Z,8.35
2022-12-03T05:10:59.906Z,8.48
2022-12-03T05:13:27.379Z,7.75
2022-12-03T05:15:54.781Z,7.43
2022-12-03T05:18:22.521Z,7.72
2022-12-03T05:20:53.575Z,8.48
2022-12-03T05:23:21.976Z,7.53
2022-12-03T05:25:49.517Z,8.48
2022-12-03T05:28:17.131Z,10.48
2022-12-03T05:30:44.618Z,8.73
2022-12-03T05:33:12.165Z,8.20
2022-12-03T05:35:39.639Z,8.02
2022-12-03T05:38:07.591Z,6.45
2022-12-03T05:40:35.777Z,8.35
2022-12-03T05:43:03.979Z,10.38
2022-12-03T05:45:35.479Z,8.27
2022-12-03T05:48:04.621Z,8.50
2022-12-03T05:50:34.313Z,8.23
2022-12-03T05:53:01.966Z,10.00
2022-12-03T05:55:30.132Z,11.40
2022-12-03T05:57:57.786Z,6.72
2022-12-03T06:00:28.625Z,8.40
2022-12-03T06:02:56.659Z,8.35
2022-12-03T06:05:25.333Z,7.17
2022-12-03T06:07:53.537Z,8.32
2022-12-03T06:10:26.884Z,8.40
2022-12-03T06:12:54.426Z,8.70
2022-12-03T06:15:22.669Z,8.55
2022-12-03T06:17:50.289Z,9.53
2022-12-03T06:20:20.216Z,8.77
2022-12-03T06:22:48.211Z,7.80
2022-12-03T06:25:16.949Z,8.15
2022-12-03T06:27:44.898Z,8.95
2022-12-03T06:30:13.943Z,9.30
2022-12-03T06:32:41.777Z,9.32
2022-12-03T06:35:09.541Z,9.00
2022-12-03T06:37:37.058Z,9.68
2022-12-03T06:40:04.896Z,9.50
2022-12-03T06:42:32.402Z,8.68
2022-12-03T06:44:59.801Z,9.27
2022-12-03T06:47:27.296Z,8.85
2022-12-03T06:49:54.829Z,9.15
2022-12-03T06:52:22.453Z,9.15
2022-12-03T06:54:49.879Z,8.75
2022-12-03T06:57:17.367Z,7.68
2022-12-03T06:59:44.792Z,9.30
2022-12-03T07:02:12.871Z,8.90
2022-12-03T07:04:52.526Z,8.30
2022-12-03T07:07:20.335Z,8.65
2022-12-03T07:09:48.043Z,9.10
2022-12-03T07:12:15.590Z,8.98
2022-12-03T07:14:43.403Z,11.65
2022-12-03T07:17:10.896Z,8.52
2022-12-03T07:19:38.466Z,9.80
2022-12-03T07:22:06.306Z,16.73
2022-12-03T07:24:34.064Z,10.90
2022-12-03T07:27:01.511Z,9.10
2022-12-03T07:29:29.028Z,9.40
2022-12-03T07:31:56.560Z,9.85
2022-12-03T07:34:24.340Z,10.05
2022-12-03T07:36:52.346Z,10.48
2022-12-03T07:39:20.052Z,8.10
2022-12-03T07:41:47.787Z,10.85
2022-12-03T07:44:15.285Z,10.77
2022-12-03T07:46:43.284Z,10.45
2022-12-03T07:49:12.381Z,7.20
2022-12-03T07:51:40.476Z,9.60
2022-12-03T07:54:07.931Z,9.98
2022-12-03T07:56:36.038Z,9.00
2022-12-03T07:59:03.844Z,7.20
2022-12-03T08:01:31.637Z,10.38
2022-12-03T08:03:59.804Z,10.38
2022-12-03T08:06:27.399Z,9.93
2022-12-03T08:08:54.896Z,9.27
2022-12-03T08:11:22.639Z,10.90
2022-12-03T08:13:50.345Z,10.68
2022-12-03T08:16:21.397Z,9.32
2022-12-03T08:18:50.493Z,9.70
2022-12-03T08:21:20.445Z,8.73
2022-12-03T08:23:48.477Z,8.75
2022-12-03T08:26:28.163Z,9.93
2022-12-03T08:28:55.664Z,10.52
2022-12-03T08:31:32.486Z,9.23
2022-12-03T08:34:26.496Z,9.02
2022-12-03T08:37:01.424Z,9.32
2022-12-03T08:39:31.025Z,8.55
2022-12-03T08:42:21.047Z,9.45
2022-12-03T08:44:48.577Z,9.45
2022-12-03T08:47:21.243Z,9.25
2022-12-03T08:49:59.936Z,10.15
2022-12-03T08:52:32.255Z,9.88
2022-12-03T08:55:02.772Z,9.32
2022-12-03T08:57:32.943Z,10.02
2022-12-03T09:00:15.452Z,11.25
2022-12-03T09:02:49.632Z,10.07
2022-12-03T09:05:22.260Z,12.60
2022-12-03T09:07:50.206Z,16.35
2022-12-03T09:10:17.776Z,9.35
2022-12-03T09:12:45.656Z,10.68
2022-12-03T09:15:13.490Z,10.07
2022-12-03T09:17:40.957Z,10.52
2022-12-03T09:20:08.832Z,9.60
2022-12-03T09:22:36.614Z,9.38
2022-12-03T09:25:04.532Z,10.18
2022-12-03T09:27:32.288Z,8.47
2022-12-03T09:29:59.996Z,10.45
2022-12-03T09:32:27.620Z,11.30
2022-12-03T09:34:55.438Z,10.27
2022-12-03T09:37:23.216Z,8.20
2022-12-03T09:39:50.657Z,10.73
2022-12-03T09:42:18.163Z,15.48
2022-12-03T09:44:46.123Z,16.77
2022-12-03T09:47:14.094Z,15.25
2022-12-03T09:49:42.362Z,11.25
2022-12-03T09:52:22.489Z,11.60
2022-12-03T09:54:50.492Z,10.95
2022-12-03T09:57:18.847Z,12.88
2022-12-03T09:59:46.759Z,10.30
2022-12-03T10:02:24.148Z,11.35
2022-12-03T10:04:53.286Z,10.82
2022-12-03T10:07:21.080Z,9.68
2022-12-03T10:09:48.591Z,10.63
2022-12-03T10:12:22.562Z,12.95
2022-12-03T10:14:50.360Z,9.98
2022-12-03T10:17:18.282Z,10.02
2022-12-03T10:19:46.401Z,13.97
2022-12-03T10:22:14.105Z,14.43
2022-12-03T10:24:41.900Z,13.10
2022-12-03T10:27:24.499Z,13.48
2022-12-03T10:30:00.276Z,12.73
2022-12-03T10:32:41.460Z,10.75
2022-12-03T10:35:34.212Z,11.32
2022-12-03T10:38:19.947Z,9.90
2022-12-03T10:40:47.659Z,9.45
2022-12-03T10:43:17.864Z,10.05
2022-12-03T10:46:06.413Z,11.02
2022-12-03T10:48:34.102Z,12.23
2022-12-03T10:51:10.234Z,11.30
2022-12-03T10:53:40.582Z,10.32
2022-12-03T10:56:15.073Z,13.27
2022-12-03T10:58:42.840Z,12.07
2022-12-03T11:01:25.789Z,11.25
2022-12-03T11:04:01.229Z,10.30
2022-12-03T11:06:31.522Z,9.45
2022-12-03T11:09:03.818Z,11.07
2022-12-03T11:11:34.614Z,10.10
2022-12-03T11:14:04.216Z,10.68
2022-12-03T11:16:40.871Z,10.27
2022-12-03T11:19:37.434Z,10.38
2022-12-03T11:22:04.976Z,10.13
2022-12-03T11:24:35.802Z,10.07
2022-12-03T11:27:03.304Z,10.73
2022-12-03T11:29:48.787Z,10.15
2022-12-03T11:32:38.167Z,9.45
2022-12-03T11:35:24.204Z,9.68
2022-12-03T11:37:52.236Z,9.40
2022-12-03T11:40:19.622Z,10.95
2022-12-03T11:42:48.324Z,10.80
2022-12-03T11:45:18.656Z,10.07
2022-12-03T11:47:58.357Z,13.02
2022-12-03T11:50:39.725Z,12.30
2022-12-03T11:53:13.211Z,12.35
2022-12-03T11:55:48.447Z,11.85
2022-12-03T11:58:30.249Z,10.02
2022-12-03T12:01:00.027Z,11.43
2022-12-03T12:03:33.877Z,11.13
2022-12-03T12:06:07.759Z,9.02
2022-12-03T12:08:41.419Z,10.45
2022-12-03T12:11:19.075Z,10.65
2022-12-03T12:13:54.718Z,9.63
2022-12-03T12:16:41.038Z,9.10
2022-12-03T12:19:33.043Z,9.90
2022-12-03T12:22:13.624Z,9.68
2022-12-03T12:24:43.195Z,10.65
2022-12-03T12:27:14.359Z,9.43
2022-12-03T12:29:43.973Z,10.30
2022-12-03T12:32:15.244Z,9.57
2022-12-03T12:35:02.777Z,10.45
2022-12-03T12:37:37.332Z,10.65
2022-12-03T12:40:15.195Z,11.63
2022-12-03T12:42:55.552Z,9.93
2022-12-03T12:45:29.308Z,9.75
2022-12-03T12:48:14.934Z,10.63
2022-12-03T12:50:45.576Z,10.35
2022-12-03T12:53:26.509Z,9.52
2022-12-03T12:56:00.042Z,9.55
2022-12-03T12:58:31.933Z,12.05
2022-12-03T13:01:04.125Z,10.48
2022-12-03T13:03:38.304Z,10.32
2022-12-03T13:06:06.327Z,11.30
2022-12-03T13:08:40.594Z,11.57
2022-12-03T13:11:34.324Z,11.13
2022-12-03T13:14:10.996Z,9.98
2022-12-03T13:16:39.034Z,10.57
2022-12-03T13:19:20.151Z,8.10
2022-12-03T13:21:47.877Z,10.13
2022-12-03T13:24:41.087Z,10.13
2022-12-03T13:27:17.651Z,11.10
2022-12-03T13:29:53.264Z,11.88
2022-12-03T13:32:23.341Z,11.32
2022-12-03T13:34:50.805Z,11.65
2022-12-03T13:37:25.406Z,11.70
2022-12-03T13:39:55.966Z,14.25
2022-12-03T13:42:46.060Z,11.07
2022-12-03T13:45:13.748Z,10.45
2022-12-03T13:47:57.532Z,10.85
2022-12-03T13:50:46.043Z,11.18
2022-12-03T13:53:24.171Z,10.50
2022-12-03T13:56:13.830Z,8.75
2022-12-03T13:58:41.289Z,10.40
2022-12-03T14:01:08.751Z,10.95
2022-12-03T14:03:36.985Z,15.02
2022-12-03T14:06:04.869Z,10.38
2022-12-03T14:08:32.706Z,9.95
2022-12-03T14:11:01.091Z,15.27
2022-12-03T14:13:28.938Z,11.65
2022-12-03T14:15:56.777Z,10.50
2022-12-03T14:18:24.327Z,11.95
2022-12-03T14:20:52.221Z,11.70
2022-12-03T14:23:20.144Z,8.43
2022-12-03T14:25:48.023Z,11.23
2022-12-03T14:28:15.701Z,10.43
2022-12-03T14:30:43.123Z,11.65
2022-12-03T14:33:10.570Z,22.08
2022-12-03T14:35:38.018Z,34.05
2022-12-03T14:38:05.972Z,19.42
2022-12-03T14:40:34.158Z,13.73
2022-12-03T14:43:01.947Z,24.83
2022-12-03T14:45:30.102Z,14.95
2022-12-03T14:47:57.652Z,9.27
2022-12-03T14:50:25.828Z,9.20
2022-12-03T14:52:54.151Z,8.70
2022-12-03T14:55:21.735Z,11.25
2022-12-03T14:57:49.265Z,12.50
2022-12-03T15:00:17.284Z,11.73
2022-12-03T15:02:44.842Z,9.07
2022-12-03T15:05:12.404Z,16.67
2022-12-03T15:07:39.970Z,11.38
2022-12-03T15:10:08.617Z,12.63
2022-12-03T15:12:36.291Z,15.77
2022-12-03T15:15:04.116Z,12.80
2022-12-03T15:17:32.416Z,12.27
2022-12-03T15:20:00.366Z,14.02
2022-12-03T15:22:27.857Z,12.35
2022-12-03T15:24:55.478Z,12.15
2022-12-03T15:27:23.515Z,12.15
2022-12-03T15:29:51.756Z,11.13
2022-12-03T15:32:19.739Z,10.45
2022-12-03T15:34:47.269Z,13.35
2022-12-03T15:37:14.947Z,12.80
2022-12-03T15:39:48.504Z,12.43
2022-12-03T15:42:16.966Z,12.95
2022-12-03T15:44:44.383Z,13.15
2022-12-03T15:47:11.841Z,13.77
2022-12-03T15:49:39.658Z,12.35
2022-12-03T15:52:07.993Z,15.10
2022-12-03T15:54:35.770Z,9.37
2022-12-03T15:57:03.210Z,12.27
2022-12-03T15:59:30.862Z,17.75
2022-12-03T16:01:58.442Z,15.65
2022-12-03T16:04:26.100Z,13.75
2022-12-03T16:06:53.648Z,15.10
2022-12-03T16:09:26.739Z,18.98
2022-12-03T16:11:55.260Z,15.68
2022-12-03T16:14:22.991Z,10.60
2022-12-03T16:16:50.501Z,13.20
2022-12-03T16:19:18.300Z,12.35
2022-12-03T16:21:45.718Z,11.85
2022-12-03T16:24:13.150Z,11.80
2022-12-03T16:26:40.577Z,12.13
2022-12-03T16:29:08.321Z,12.15
2022-12-03T16:31:35.959Z,12.18
2022-12-03T16:34:03.744Z,13.05
2022-12-03T16:36:31.462Z,13.20
2022-12-03T16:38:58.981Z,12.98
2022-12-03T16:41:26.736Z,13.48
2022-12-03T16:43:54.277Z,12.63
2022-12-03T16:46:26.119Z,11.88
2022-12-03T16:48:57.920Z,14.02
2022-12-03T16:51:27.445Z,12.10
2022-12-03T16:53:55.249Z,12.10
2022-12-03T16:56:23.002Z,13.73
2022-12-03T16:58:50.710Z,16.97
2022-12-03T17:01:18.680Z,16.15
2022-12-03T17:03:46.752Z,11.13
2022-12-03T17:06:15.256Z,11.10
2022-12-03T17:08:48.758Z,14.57
2022-12-03T17:11:17.819Z,18.55
2022-12-03T17:13:45.775Z,10.15
2022-12-03T17:16:13.536Z,10.53
2022-12-03T17:18:41.741Z,9.68
2022-12-03T17:21:09.497Z,9.07
2022-12-03T17:23:37.242Z,14.43
2022-12-03T17:26:05.150Z,11.15
2022-12-03T17:28:33.181Z,14.60
2022-12-03T17:31:01.177Z,10.50
2022-12-03T17:33:29.007Z,13.65
2022-12-03T17:35:56.869Z,12.30
2022-12-03T17:38:24.681Z,11.43
2022-12-03T17:40:52.422Z,12.77
2022-12-03T17:43:19.880Z,13.70
2022-12-03T17:45:47.512Z,15.20
2022-12-03T17:48:15.522Z,14.10
2022-12-03T17:50:43.272Z,13.48
2022-12-03T17:53:11.211Z,12.82
2022-12-03T17:55:44.645Z,12.60
2022-12-03T17:58:12.906Z,12.02
2022-12-03T18:00:42.266Z,12.18
2022-12-03T18:03:10.398Z,17.67
2022-12-03T18:05:38.126Z,10.57
2022-12-03T18:08:06.223Z,13.00
2022-12-03T18:10:33.791Z,11.35
2022-12-03T18:13:02.418Z,14.75
2022-12-03T18:15:31.123Z,17.73
2022-12-03T18:20:26.928Z,14.32
2022-12-03T18:22:54.392Z,14.10
2022-12-03T18:25:21.815Z,12.10
2022-12-03T18:27:49.694Z,13.73
2022-12-03T18:30:17.684Z,14.55
2022-12-03T18:32:45.976Z,14.53
2022-12-03T18:35:14.291Z,12.85
2022-12-03T18:37:42.226Z,10.30
2022-12-03T18:40:18.606Z,14.65
2022-12-03T18:42:46.970Z,14.27
2022-12-03T18:45:15.970Z,13.85
2022-12-03T18:47:44.638Z,14.55
2022-12-03T18:50:13.120Z,13.73
2022-12-03T18:52:41.126Z,15.45
2022-12-03T18:55:19.110Z,17.55
2022-12-03T18:57:46.846Z,15.50
2022-12-03T19:00:15.700Z,16.08
2022-12-03T19:03:02.491Z,16.35
2022-12-03T19:05:33.203Z,15.30
2022-12-03T19:08:01.454Z,15.23
2022-12-03T19:10:29.505Z,15.48
2022-12-03T19:12:57.445Z,12.82
2022-12-03T19:15:25.286Z,13.60
2022-12-03T19:17:53.501Z,16.90
2022-12-03T19:20:21.942Z,14.18
2022-12-03T19:22:49.992Z,14.55
2022-12-03T19:25:17.978Z,12.85
2022-12-03T19:27:46.231Z,11.07
2022-12-03T19:30:14.768Z,14.35
2022-12-03T19:32:43.003Z,14.85
2022-12-03T19:35:11.441Z,15.20
2022-12-03T19:37:39.867Z,15.15
2022-12-03T19:40:10.293Z,14.82
2022-12-03T19:42:38.625Z,16.10
2022-12-03T19:45:07.134Z,16.95
2022-12-03T19:47:36.168Z,15.88
2022-12-03T19:50:05.682Z,13.90
2022-12-03T19:55:04.181Z,15.60
2022-12-03T19:57:32.061Z,14.88
2022-12-03T20:00:01.241Z,10.80
2022-12-03T20:04:56.945Z,13.70
2022-12-03T20:07:24.649Z,14.60
2022-12-03T20:09:53.186Z,14.20
2022-12-03T20:12:21.315Z,14.10
2022-12-03T20:14:49.935Z,15.05
2022-12-03T20:17:19.009Z,13.07
2022-12-03T20:19:46.855Z,13.20
2022-12-03T20:22:14.743Z,13.33
2022-12-03T20:24:42.435Z,13.02
2022-12-03T20:27:09.856Z,12.40
2022-12-03T20:29:37.363Z,12.65
2022-12-03T20:32:07.092Z,13.02
2022-12-03T20:34:36.035Z,12.77
2022-12-03T20:39:31.178Z,13.32
2022-12-03T20:41:59.934Z,15.43
2022-12-03T20:44:27.675Z,12.18
2022-12-03T20:46:55.471Z,13.48
2022-12-03T20:49:23.533Z,10.48
2022-12-03T20:51:51.481Z,9.80
2022-12-03T20:54:19.220Z,12.60
2022-12-03T20:56:46.996Z,12.98
2022-12-03T20:59:16.786Z,12.15
2022-12-03T21:01:46.002Z,13.00
2022-12-03T21:04:13.907Z,13.30
2022-12-03T21:06:42.453Z,13.02
2022-12-03T21:09:11.435Z,14.63
2022-12-03T21:11:41.641Z,14.77
2022-12-03T21:14:11.234Z,14.35
2022-12-03T21:17:07.358Z,14.07
2022-12-03T21:19:34.081Z,12.45
2022-12-03T21:22:01.789Z,13.57
2022-12-03T21:24:30.056Z,17.60
2022-12-03T21:26:57.890Z,10.35
2022-12-03T21:29:25.587Z,12.90
2022-12-03T21:31:53.652Z,20.98
2022-12-03T21:34:21.468Z,12.43
2022-12-03T21:36:49.647Z,11.43
2022-12-03T21:39:18.827Z,12.98
2022-12-03T21:42:19.336Z,12.60
2022-12-03T21:44:36.103Z,12.52
2022-12-03T21:47:11.220Z,13.65
2022-12-03T21:49:41.668Z,11.68
2022-12-03T21:52:09.986Z,11.32
2022-12-03T21:54:37.675Z,12.05
2022-12-03T21:57:05.467Z,12.85
2022-12-03T21:59:33.351Z,12.07
2022-12-03T22:02:01.479Z,10.20
2022-12-03T22:04:29.024Z,13.10
2022-12-03T22:06:56.554Z,11.75
2022-12-03T22:09:26.732Z,10.90
2022-12-03T22:11:56.949Z,11.93
2022-12-03T22:14:24.735Z,12.02
2022-12-03T22:16:52.464Z,11.60
2022-12-03T22:19:24.366Z,11.90
2022-12-03T22:21:52.314Z,12.10
2022-12-03T22:24:20.193Z,12.13
2022-12-03T22:26:47.905Z,12.50
2022-12-03T22:29:15.792Z,11.20
2022-12-03T22:31:44.358Z,11.88
2022-12-03T22:34:12.275Z,12.40
2022-12-03T22:36:40.097Z,9.23
2022-12-03T22:39:07.891Z,11.82
2022-12-03T22:41:35.390Z,12.65
2022-12-03T22:44:02.856Z,11.60
2022-12-03T22:46:30.938Z,12.30
2022-12-03T22:49:04.980Z,11.68
2022-12-03T22:51:35.157Z,11.52
2022-12-03T22:54:02.734Z,11.52
2022-12-03T22:56:30.665Z,12.68
2022-12-03T22:58:58.233Z,10.33
2022-12-03T23:01:32.008Z,12.25
2022-12-03T23:04:00.659Z,12.15
2022-12-03T23:06:29.712Z,12.02
2022-12-03T23:11:26.733Z,11.27
2022-12-03T23:13:54.917Z,11.48
2022-12-03T23:16:26.244Z,9.40
2022-12-03T23:18:54.639Z,12.48
2022-12-03T23:21:29.505Z,11.25
2022-12-03T23:23:59.963Z,11.13
2022-12-03T23:26:28.227Z,11.48
2022-12-03T23:28:56.614Z,11.38
2022-12-03T23:31:27.597Z,12.10
2022-12-03T23:33:56.278Z,12.02
2022-12-03T23:36:25.523Z,12.68
2022-12-03T23:38:53.689Z,11.57
2022-12-03T23:41:22.975Z,11.98
2022-12-03T23:43:51.616Z,10.85
2022-12-03T23:46:22.532Z,9.50
2022-12-03T23:48:50.724Z,11.63
2022-12-03T23:51:21.391Z,9.38
2022-12-03T23:53:49.025Z,10.77
2022-12-03T23:56:22.279Z,8.93
2022-12-03T23:58:50.367Z,11.85
